Augusta, Kentucky
Current Conditions -  °F | °C
As of 11:35 AM on Thursday 27 Nov 2014 (Local Time) from KFGX Reporting Station
Overcast Overcast  
Wind Chill: 23°   Ceiling: 2300
Heat Index: 32°   Visibility: 10mi
Dew Point: 24°   Wind: 10mph
Humidity: 72%   Direction: 310°NW
Pressure: 30.27"   Gusts: 17mph
Location:  38.77°N, 84.01°W
Report Text: KFGX 271635Z AUTO 31009G15KT 10SM BKN023 BKN030 OVC034 00/M05 A3027 RMK AO2 T10021047
Loading
Personal Weather Stations






























Interactive Weather Map New forecast layout! Learn more

10-Day Weather Forecast

Advertisements
Track Severe Weather on mobile